Time;durP1;ratioP1;P1;durP2;ratioP2;P2;SDS_P1;SDS_P2;PMS_P1;PMS_P2;Temp;Humidity;BMP_temperature;BMP_pressure;BME280_temperature;BME280_humidity;BME280_pressure;Samples;Min_cycle;Max_cycle;Signal;HPM_P1;HPM_P2
2022/08/28 00:02:23;;;;;;;13.60;10.03;;;22.10;99.70;;;22.59;65.62;98589.75;5008208;27;114457;-86
2022/08/28 00:04:50;;;;;;;12.70;10.20;;;22.10;99.70;;;22.58;65.56;98586.16;5018671;28;113619;-86
2022/08/28 00:07:17;;;;;;;13.40;10.37;;;22.20;99.70;;;22.60;65.66;98591.41;5012281;28;124466;-86
2022/08/28 00:09:43;;;;;;;13.17;10.53;;;22.20;99.70;;;22.61;65.74;98587.38;5013984;28;123761;-85
2022/08/28 00:12:11;;;;;;;14.77;11.40;;;22.10;99.60;;;22.61;65.59;98584.53;5014479;28;115196;-85
2022/08/28 00:14:38;;;;;;;11.07;8.97;;;22.20;99.60;;;22.60;65.39;98586.56;5009006;28;115174;-85
2022/08/28 00:17:05;;;;;;;14.77;11.20;;;22.20;99.60;;;22.59;65.24;98589.75;5008056;28;124182;-85
2022/08/28 00:19:33;;;;;;;15.33;10.97;;;22.20;99.60;;;22.56;65.63;98587.75;5007425;27;123970;-85
2022/08/28 00:22:00;;;;;;;16.43;11.90;;;22.20;99.50;;;22.50;65.62;98593.75;5014671;28;114240;-85
2022/08/28 00:24:27;;;;;;;13.03;11.33;;;22.10;99.50;;;22.47;65.20;98591.75;5012923;28;114148;-77
2022/08/28 00:29:54;;;;;;;15.57;12.00;;;22.00;99.40;;;22.39;65.42;98592.13;4992815;28;123768;-79
2022/08/28 00:32:22;;;;;;;15.67;11.53;;;22.00;99.50;;;22.37;65.52;98600.97;5023585;28;114371;-79
2022/08/28 00:34:49;;;;;;;13.20;10.50;;;22.00;99.50;;;22.35;65.67;98592.09;5026204;28;114138;-80
2022/08/28 00:37:17;;;;;;;13.93;11.33;;;21.90;99.50;;;22.33;65.58;98594.53;5021673;28;122493;-79
2022/08/28 00:39:46;;;;;;;14.50;10.17;;;21.90;99.50;;;22.32;65.42;98598.53;5022000;27;123900;-79
2022/08/28 00:42:15;;;;;;;14.63;10.80;;;21.90;99.50;;;22.32;65.60;98592.09;5020671;28;114617;-79
2022/08/28 00:44:44;;;;;;;16.37;11.40;;;21.90;99.50;;;22.30;65.67;98592.50;5023742;28;114394;-79
2022/08/28 00:47:11;;;;;;;15.60;12.20;;;21.90;99.60;;;22.28;65.93;98586.47;5023768;28;123166;-77
2022/08/28 00:49:50;;;;;;;16.93;11.93;;;21.90;99.60;;;22.24;65.64;98585.63;5039385;28;122656;-78
2022/08/28 00:52:19;;;;;;;16.37;11.37;;;21.90;99.60;;;22.21;65.78;98580.78;5046339;27;113410;-79
2022/08/28 00:55:03;;;;;;;17.40;11.33;;;21.80;99.60;;;22.19;66.08;98580.38;5018348;28;115378;-80
2022/08/28 00:57:36;;;;;;;16.63;11.83;;;21.90;99.70;;;22.18;66.12;98581.56;5018435;28;124493;-78
2022/08/28 01:00:11;;;;;;;13.57;10.90;;;21.80;99.70;;;22.17;66.46;98574.34;5023339;28;123754;-77
2022/08/28 01:02:39;;;;;;;15.57;11.87;;;21.80;99.90;;;22.16;66.11;98575.50;5022215;28;115644;-77
2022/08/28 01:05:08;;;;;;;15.47;11.07;;;21.80;99.80;;;22.18;66.23;98576.75;5025880;28;117060;-77
2022/08/28 01:07:37;;;;;;;14.60;10.70;;;21.80;99.90;;;22.18;66.07;98573.13;5030772;28;122363;-79
2022/08/28 01:10:10;;;;;;;16.10;12.20;;;21.80;99.90;;;22.20;66.35;98570.75;5021332;28;122794;-78
2022/08/28 01:12:36;;;;;;;12.37;9.97;;;21.80;99.90;;;22.22;66.50;98577.59;5016488;28;112484;-82
2022/08/28 01:15:13;;;;;;;14.50;10.20;;;21.80;99.90;;;22.25;66.04;98581.63;5017313;28;114008;-80
2022/08/28 01:17:46;;;;;;;11.43;9.30;;;21.80;99.90;;;22.28;66.24;98581.63;5012860;27;124043;-77
2022/08/28 01:20:19;;;;;;;13.87;9.97;;;21.80;99.90;;;22.34;66.08;98581.25;5028228;27;124058;-83
2022/08/28 01:23:05;;;;;;;16.50;11.80;;;21.80;99.90;;;22.35;66.06;98582.84;5015331;28;114217;-79
2022/08/28 01:25:35;;;;;;;13.97;10.30;;;21.90;99.90;;;22.38;65.88;98588.50;5010536;28;113233;-77
2022/08/28 01:28:09;;;;;;;16.60;9.60;;;21.90;99.90;;;22.39;66.27;98581.66;5012041;28;124627;-79
2022/08/28 01:30:36;;;;;;;12.30;9.70;;;21.90;99.90;;;22.39;65.82;98576.03;5011010;28;124077;-78
2022/08/28 01:33:03;;;;;;;12.10;9.60;;;21.90;99.90;;;22.39;65.88;98578.06;5010945;28;114168;-78
2022/08/28 01:35:34;;;;;;;13.77;11.30;;;21.90;99.90;;;22.35;66.16;98580.84;5013391;28;113818;-77
2022/08/28 01:38:02;;;;;;;15.77;10.63;;;21.90;99.90;;;22.33;65.79;98577.63;5013954;28;124134;-80
2022/08/28 01:40:38;;;;;;;14.33;10.63;;;21.90;99.90;;;22.30;66.11;98580.41;5019406;28;123242;-79
2022/08/28 01:43:25;;;;;;;13.63;10.63;;;21.90;99.90;;;22.24;66.09;98585.63;5022600;28;114840;-77
2022/08/28 01:46:03;;;;;;;19.07;11.80;;;21.80;99.90;;;22.21;66.08;98580.78;5016407;28;114089;-76
2022/08/28 01:48:35;;;;;;;14.60;11.40;;;21.80;99.90;;;22.16;66.44;98578.31;5017747;28;123414;-76
2022/08/28 01:51:04;;;;;;;17.53;11.57;;;21.80;99.90;;;22.15;66.35;98576.72;5029301;27;122873;-77
2022/08/28 01:53:31;;;;;;;17.63;11.47;;;21.70;99.90;;;22.13;66.43;98584.75;5025816;27;115217;-77
2022/08/28 01:56:01;;;;;;;15.50;11.03;;;21.80;99.90;;;22.12;66.46;98583.16;5025704;28;115012;-77
2022/08/28 01:58:27;;;;;;;13.30;10.50;;;21.80;99.90;;;22.11;66.60;98584.34;5027036;28;123622;-77
2022/08/28 02:00:54;;;;;;;14.23;10.17;;;21.70;99.90;;;22.10;66.72;98586.34;5019269;27;123830;-77
2022/08/28 02:03:22;;;;;;;13.27;10.37;;;21.70;99.90;;;22.08;66.64;98588.75;5028151;28;113586;-79
2022/08/28 02:05:49;;;;;;;14.37;10.80;;;21.70;99.90;;;22.08;66.49;98593.56;5010444;28;114028;-77
2022/08/28 02:08:17;;;;;;;14.43;10.47;;;21.70;99.90;;;22.09;66.67;98595.19;5014640;28;123532;-77
2022/08/28 02:10:43;;;;;;;14.67;12.30;;;21.70;99.90;;;22.09;66.75;98592.38;5027237;28;123843;-76
2022/08/28 02:13:11;;;;;;;15.50;12.33;;;21.60;99.90;;;22.09;66.78;98589.56;5015322;28;114749;-77
2022/08/28 02:15:40;;;;;;;14.33;10.93;;;21.70;99.90;;;22.06;66.76;98593.97;5015814;28;114096;-78
2022/08/28 02:18:07;;;;;;;15.37;11.20;;;21.60;99.90;;;22.05;67.00;98595.16;5019828;27;124320;-79
2022/08/28 02:20:34;;;;;;;14.13;11.23;;;21.70;99.90;;;22.02;67.09;98591.13;5010558;28;125838;-79
2022/08/28 02:23:01;;;;;;;18.07;13.10;;;21.60;99.90;;;22.01;67.38;98597.97;5019764;28;114325;-78
2022/08/28 02:25:28;;;;;;;19.90;12.77;;;21.60;99.90;;;21.99;67.41;98591.91;5011284;27;113916;-77
2022/08/28 02:27:55;;;;;;;17.43;12.57;;;21.60;99.90;;;21.98;67.35;98589.53;5009734;28;124341;-78
2022/08/28 02:30:22;;;;;;;15.13;11.17;;;21.60;99.90;;;21.97;67.41;98587.88;5006279;28;124329;-77
2022/08/28 02:32:49;;;;;;;15.77;12.80;;;21.60;99.90;;;21.95;67.23;98590.28;5016424;27;114702;-78
2022/08/28 02:35:19;;;;;;;16.00;12.07;;;21.60;99.90;;;21.94;67.25;98595.09;5014563;27;113843;-77
2022/08/28 02:37:46;;;;;;;19.03;11.07;;;21.60;99.90;;;21.91;67.36;98590.28;5013439;28;124336;-80
2022/08/28 02:40:14;;;;;;;15.30;11.40;;;21.60;99.90;;;21.91;67.60;98600.72;5009813;28;123916;-78
2022/08/28 02:42:41;;;;;;;16.50;12.73;;;21.50;99.90;;;21.91;67.72;98595.09;5014226;28;115941;-77
2022/08/28 02:45:10;;;;;;;15.70;12.77;;;21.50;99.90;;;21.89;67.99;98598.28;5032478;27;114015;-77
2022/08/28 02:47:38;;;;;;;17.80;13.10;;;21.50;99.90;;;21.89;67.98;98595.47;5015091;28;124471;-77
2022/08/28 02:50:06;;;;;;;18.53;11.67;;;21.50;99.90;;;21.89;67.76;98589.84;5009248;28;124314;-76
2022/08/28 02:52:36;;;;;;;15.60;12.07;;;21.50;99.90;;;21.91;67.94;98598.72;5012431;28;114315;-78
2022/08/28 02:55:10;;;;;;;13.80;11.23;;;21.50;99.90;;;21.92;67.98;98591.06;5020816;28;113413;-79
2022/08/28 02:57:37;;;;;;;10.50;9.20;;;21.50;99.90;;;21.97;67.84;98596.31;5021359;28;124226;-77
2022/08/28 03:00:11;;;;;;;12.63;9.77;;;21.50;99.90;;;22.04;67.68;98593.56;5015924;28;123779;-77
2022/08/28 03:02:39;;;;;;;14.47;11.47;;;21.50;99.90;;;22.10;67.53;98583.53;5009649;28;113982;-78
2022/08/28 03:05:08;;;;;;;17.00;10.33;;;21.60;99.90;;;22.16;67.43;98590.38;5024048;28;114116;-76
2022/08/28 03:07:35;;;;;;;15.47;11.70;;;21.60;99.90;;;22.21;67.14;98581.59;5009822;28;123892;-77
2022/08/28 03:10:03;;;;;;;11.90;8.73;;;21.70;99.90;;;22.23;67.00;98584.81;5021382;28;123973;-77
2022/08/28 03:12:29;;;;;;;13.20;9.50;;;21.70;99.90;;;22.30;67.09;98595.31;5008749;28;114430;-77
2022/08/28 03:14:56;;;;;;;13.20;9.67;;;21.70;99.90;;;22.34;66.87;98590.50;5014225;28;114034;-80
2022/08/28 03:17:22;;;;;;;16.83;10.87;;;21.80;99.90;;;22.38;66.86;98588.50;5011431;28;124216;-77
2022/08/28 03:19:49;;;;;;;16.50;11.07;;;21.80;99.90;;;22.39;66.70;98587.31;5026011;27;123827;-77
2022/08/28 03:23:24;;;;;;;11.33;9.60;;;21.80;99.90;;;22.39;66.73;98586.50;5009656;28;114406;-77
2022/08/28 03:25:05;;;;;;;15.40;10.90;;;21.80;99.90;;;22.40;66.67;98590.91;5025422;28;114121;-77
2022/08/28 03:27:32;;;;;;;15.90;11.67;;;21.80;99.90;;;22.42;66.47;98588.50;5022384;27;123736;-78
2022/08/28 03:30:01;;;;;;;13.87;10.03;;;21.90;99.90;;;22.44;66.43;98588.94;5021301;28;123295;-78
2022/08/28 03:32:28;;;;;;;14.70;10.63;;;21.90;99.90;;;22.46;66.12;98586.50;5016073;28;115253;-77
2022/08/28 03:34:55;;;;;;;14.97;10.63;;;21.90;99.90;;;22.46;66.24;98590.16;5009541;28;115155;-77
2022/08/28 03:37:21;;;;;;;14.50;10.87;;;21.90;99.90;;;22.41;66.40;98593.34;5011196;28;124858;-78
2022/08/28 03:39:48;;;;;;;13.50;10.20;;;21.90;99.90;;;22.40;66.31;98594.53;5011162;28;123870;-78
2022/08/28 03:42:15;;;;;;;11.43;9.50;;;21.90;99.90;;;22.42;66.08;98596.97;5011252;28;113428;-80
2022/08/28 03:44:41;;;;;;;12.17;9.97;;;21.90;99.90;;;22.44;66.15;98598.19;5010134;28;114318;-77
2022/08/28 03:47:08;;;;;;;15.03;11.23;;;21.90;99.90;;;22.46;65.99;98592.97;5008750;28;124151;-77
2022/08/28 03:49:35;;;;;;;14.03;11.63;;;21.90;99.90;;;22.48;66.28;98601.00;5008137;28;123881;-78
2022/08/28 03:52:02;;;;;;;15.63;11.43;;;21.90;99.90;;;22.46;66.12;98590.16;5008627;28;114096;-78
2022/08/28 03:54:30;;;;;;;16.90;12.40;;;21.90;99.90;;;22.47;66.23;98599.41;5030123;27;113862;-77
2022/08/28 03:56:57;;;;;;;13.57;10.87;;;21.90;99.90;;;22.48;65.88;98598.97;5016960;28;124453;-77
2022/08/28 03:59:23;;;;;;;17.00;12.23;;;21.90;99.90;;;22.51;66.13;98594.56;5027237;28;123785;-78
2022/08/28 04:01:51;;;;;;;13.13;9.53;;;22.00;99.90;;;22.55;65.68;98595.41;5018109;28;114300;-78
2022/08/28 04:04:17;;;;;;;15.70;10.20;;;22.00;99.90;;;22.58;65.78;98593.78;5012698;28;114201;-78
2022/08/28 04:06:44;;;;;;;16.00;13.30;;;22.00;99.90;;;22.62;65.58;98601.06;5012173;28;124022;-78
2022/08/28 04:09:11;;;;;;;11.83;9.67;;;22.10;99.90;;;22.61;65.34;98593.00;5010376;28;124323;-77
2022/08/28 04:11:41;;;;;;;14.73;11.07;;;22.10;99.90;;;22.63;65.39;98599.84;5014630;28;114361;-77
2022/08/28 04:14:09;;;;;;;16.63;11.23;;;22.10;99.90;;;22.65;65.26;98600.25;5014649;28;114156;-76
2022/08/28 04:16:35;;;;;;;17.40;12.27;;;22.10;99.80;;;22.65;65.08;98599.47;5009079;28;124253;-78
2022/08/28 04:19:02;;;;;;;15.50;10.83;;;22.10;99.70;;;22.63;65.17;98599.03;5033059;27;123637;-77
2022/08/28 04:21:29;;;;;;;16.23;12.67;;;22.10;99.70;;;22.61;64.98;98605.06;5020111;27;115342;-78
2022/08/28 04:23:55;;;;;;;13.40;9.63;;;22.10;99.70;;;22.63;64.90;98602.66;5010827;28;115231;-77
2022/08/28 04:26:25;;;;;;;15.40;11.23;;;22.10;99.60;;;22.62;65.14;98606.69;5007641;28;124028;-78
2022/08/28 04:28:53;;;;;;;12.90;9.50;;;22.10;99.60;;;22.64;65.05;98612.72;5018534;27;123813;-77
2022/08/28 04:31:20;;;;;;;14.73;11.10;;;22.10;99.50;;;22.66;64.94;98603.88;5011049;28;114284;-78
2022/08/28 04:33:47;;;;;;;16.00;9.87;;;22.10;99.50;;;22.64;64.97;98611.91;5023429;28;114123;-79
2022/08/28 04:36:17;;;;;;;15.43;10.87;;;22.20;99.50;;;22.65;64.89;98605.09;5028726;27;124171;-77
2022/08/28 04:38:44;;;;;;;12.20;9.00;;;22.10;99.40;;;22.63;64.74;98608.28;5010727;28;124561;-79
2022/08/28 04:41:15;;;;;;;13.40;10.10;;;22.20;99.40;;;22.63;64.87;98607.50;5017447;28;114367;-78
2022/08/28 04:43:43;;;;;;;11.00;8.90;;;22.20;99.30;;;22.65;64.74;98600.25;5015011;28;114171;-78
2022/08/28 04:46:12;;;;;;;11.20;8.50;;;22.20;99.30;;;22.67;64.69;98605.47;5016439;28;123273;-79
2022/08/28 04:48:40;;;;;;;12.83;9.67;;;22.20;99.30;;;22.67;64.47;98606.28;5035885;27;124276;-78
2022/08/28 04:51:10;;;;;;;13.90;10.17;;;22.20;99.20;;;22.68;64.53;98609.91;5009598;28;114219;-78
2022/08/28 04:53:38;;;;;;;11.30;9.03;;;22.20;99.20;;;22.68;64.53;98610.72;5012997;27;114068;-79
2022/08/28 04:56:08;;;;;;;17.53;11.00;;;22.20;99.10;;;22.68;64.46;98613.53;5021263;28;123199;-78
2022/08/28 04:58:35;;;;;;;16.47;10.70;;;22.20;99.10;;;22.69;64.42;98605.88;5019635;28;124648;-78
2022/08/28 05:01:13;;;;;;;15.77;10.87;;;22.20;99.00;;;22.69;64.05;98622.78;5017712;28;114252;-79
2022/08/28 05:03:40;;;;;;;12.63;9.73;;;22.20;99.00;;;22.70;64.43;98621.56;5008107;28;114063;-78
2022/08/28 05:06:07;;;;;;;13.30;9.53;;;22.20;98.90;;;22.69;64.20;98617.16;5016279;28;124153;-78
2022/08/28 05:08:34;;;;;;;14.70;10.33;;;22.20;98.90;;;22.70;64.09;98624.38;5007729;28;126727;-78
2022/08/28 05:11:18;;;;;;;13.13;9.30;;;22.20;98.90;;;22.67;63.85;98619.56;5015196;28;115146;-77
2022/08/28 05:13:44;;;;;;;11.23;9.20;;;22.20;98.80;;;22.66;64.08;98612.31;5011573;28;114679;-78
2022/08/28 05:16:12;;;;;;;18.07;10.40;;;22.20;98.80;;;22.65;64.00;98622.00;5009424;28;124083;-77
2022/08/28 05:18:38;;;;;;;12.03;9.23;;;22.20;98.70;;;22.63;64.03;98621.56;5018956;27;123845;-77
2022/08/28 05:21:15;;;;;;;12.20;9.90;;;22.20;98.80;;;22.62;64.11;98623.59;5015388;28;114336;-77
2022/08/28 05:23:42;;;;;;;14.63;10.53;;;22.10;98.80;;;22.62;64.02;98622.75;5021297;28;114032;-79
2022/08/28 05:26:14;;;;;;;14.10;10.20;;;22.10;98.90;;;22.63;64.41;98627.22;5014107;28;124328;-82
2022/08/28 05:28:40;;;;;;;16.93;10.67;;;22.10;98.90;;;22.64;64.43;98632.44;5011891;28;124007;-77
2022/08/28 05:31:15;;;;;;;11.87;9.23;;;22.10;98.90;;;22.65;64.28;98627.63;5013740;28;113516;-78
2022/08/28 05:33:43;;;;;;;14.80;10.13;;;22.10;98.90;;;22.64;64.32;98626.78;5017435;27;114052;-77
2022/08/28 05:36:10;;;;;;;11.27;8.47;;;22.20;98.90;;;22.67;64.43;98636.47;5016749;28;124445;-78
2022/08/28 05:38:38;;;;;;;11.00;8.73;;;22.20;99.10;;;22.69;64.09;98634.84;5010096;28;123242;-79
2022/08/28 05:41:05;;;;;;;14.83;9.50;;;22.20;98.80;;;22.71;63.92;98626.81;5013594;28;114350;-77
2022/08/28 05:43:32;;;;;;;10.53;7.90;;;22.20;98.70;;;22.71;63.93;98626.03;5012985;28;113592;-78
2022/08/28 05:46:02;;;;;;;17.17;11.83;;;22.20;98.70;;;22.70;63.75;98630.03;5022664;28;124209;-80
2022/08/28 05:48:30;;;;;;;13.00;9.47;;;22.20;98.60;;;22.68;63.95;98640.91;5022547;28;123996;-77
2022/08/28 05:51:03;;;;;;;16.47;9.70;;;22.20;98.60;;;22.68;63.80;98643.72;5010715;28;114248;-80
2022/08/28 05:53:30;;;;;;;14.13;9.50;;;22.20;98.60;;;22.71;63.97;98637.28;5016121;27;114538;-79
2022/08/28 05:55:56;;;;;;;11.87;8.80;;;22.20;98.60;;;22.74;63.81;98639.31;5025630;27;124171;-78
2022/08/28 05:58:30;;;;;;;15.27;9.90;;;22.20;98.60;;;22.76;63.86;98638.91;5021151;28;123940;-77
2022/08/28 06:01:10;;;;;;;13.63;11.07;;;22.20;98.60;;;22.72;63.72;98645.31;5021002;28;115387;-77
2022/08/28 06:03:38;;;;;;;14.90;10.60;;;22.20;98.60;;;22.73;63.78;98640.53;5036023;27;115485;-77
2022/08/28 06:06:42;;;;;;;13.67;9.90;;;22.20;98.60;;;22.70;63.53;98639.31;5023027;28;123941;-78
2022/08/28 06:09:23;;;;;;;13.57;9.50;;;22.30;98.50;;;22.75;63.62;98648.56;5021762;28;123773;-82
2022/08/28 06:12:08;;;;;;;9.57;8.37;;;22.30;98.50;;;22.76;63.58;98650.19;5013864;28;114508;-77
2022/08/28 06:14:35;;;;;;;12.03;9.13;;;22.30;98.30;;;22.79;63.21;98655.03;5030203;28;113827;-79
2022/08/28 06:17:02;;;;;;;11.90;8.70;;;22.30;98.30;;;22.78;63.46;98642.91;5021126;28;126257;-78
2022/08/28 06:19:32;;;;;;;13.40;9.00;;;22.30;98.20;;;22.82;63.14;98659.84;5033908;27;124024;-78
2022/08/28 06:22:01;;;;;;;12.47;9.30;;;22.30;98.20;;;22.85;63.11;98659.06;5015107;28;113604;-77
2022/08/28 06:24:29;;;;;;;12.50;9.70;;;22.40;98.20;;;22.84;62.90;98649.81;5017237;28;113189;-81
2022/08/28 06:26:57;;;;;;;13.07;9.30;;;22.30;98.00;;;22.83;62.84;98656.63;5012227;28;124519;-79
2022/08/28 06:29:23;;;;;;;14.70;9.00;;;22.30;97.90;;;22.82;62.90;98655.03;5010584;28;123051;-79
2022/08/28 06:31:57;;;;;;;13.97;9.33;;;22.30;97.90;;;22.84;62.79;98649.00;5013963;27;113981;-77
2022/08/28 06:34:24;;;;;;;12.93;8.60;;;22.30;97.90;;;22.84;62.63;98669.53;5020886;28;113070;-79
2022/08/28 06:36:50;;;;;;;9.37;6.87;;;22.30;97.90;;;22.86;62.71;98658.66;5009197;28;124474;-79
2022/08/28 06:39:20;;;;;;;12.13;7.90;;;22.40;98.20;;;22.87;62.62;98665.91;5008713;28;123633;-77
2022/08/28 06:41:47;;;;;;;14.70;8.43;;;22.40;98.00;;;22.88;62.26;98664.69;5008532;28;114195;-79
2022/08/28 06:44:18;;;;;;;10.50;7.87;;;22.40;97.70;;;22.91;62.29;98666.69;5022322;28;114661;-80
2022/08/28 06:46:51;;;;;;;9.27;7.27;;;22.40;97.70;;;22.94;62.00;98673.56;5011740;28;123369;-83
2022/08/28 06:49:18;;;;;;;9.20;7.83;;;22.40;97.60;;;22.98;62.12;98673.63;5010241;28;122940;-80
2022/08/28 06:51:44;;;;;;;12.77;7.60;;;22.40;97.50;;;22.99;61.78;98669.56;5008543;28;115292;-80
2022/08/28 06:54:11;;;;;;;13.67;7.73;;;22.50;97.40;;;22.99;61.71;98675.22;5019988;27;115377;-79
2022/08/28 06:56:37;;;;;;;10.73;7.27;;;22.50;97.30;;;23.00;61.76;98672.00;5018496;27;124616;-78
2022/08/28 06:59:07;;;;;;;11.07;7.10;;;22.50;97.30;;;23.02;61.79;98674.41;5019895;28;122956;-81
2022/08/28 07:01:36;;;;;;;11.50;8.47;;;22.50;97.20;;;23.03;61.46;98671.19;5013081;28;113516;-78
2022/08/28 07:04:09;;;;;;;13.40;8.07;;;22.50;97.20;;;23.04;61.63;98677.66;5011631;28;114023;-77
2022/08/28 07:06:40;;;;;;;12.60;7.87;;;22.50;97.20;;;23.06;61.79;98676.03;5009471;28;124800;-78
2022/08/28 07:09:12;;;;;;;12.23;9.53;;;22.50;97.10;;;23.08;61.16;98684.09;5026020;28;123860;-80
2022/08/28 07:11:39;;;;;;;11.43;8.00;;;22.50;97.00;;;23.06;61.18;98683.69;5017912;28;114258;-81
2022/08/28 07:14:06;;;;;;;8.53;6.90;;;22.50;96.90;;;23.04;60.84;98691.72;5011644;28;114720;-78
2022/08/28 07:16:39;;;;;;;8.70;6.87;;;22.50;96.80;;;23.05;60.80;98690.50;5014278;28;124472;-78
2022/08/28 07:19:09;;;;;;;9.33;8.23;;;22.50;96.70;;;23.06;60.94;98694.97;5020675;27;123866;-79
2022/08/28 07:21:39;;;;;;;10.30;7.80;;;22.60;96.60;;;23.08;60.83;98690.53;5026972;27;113601;-79
2022/08/28 07:24:08;;;;;;;11.47;7.13;;;22.60;96.60;;;23.09;60.77;98686.50;5019599;28;113939;-79
2022/08/28 07:26:35;;;;;;;15.40;8.00;;;22.60;96.60;;;23.10;60.68;98690.94;5008600;28;124331;-79
2022/08/28 07:29:06;;;;;;;9.87;7.73;;;22.60;96.60;;;23.10;60.78;98690.13;5011338;28;123756;-78
2022/08/28 07:31:34;;;;;;;11.10;8.37;;;22.60;96.60;;;23.13;60.81;98692.97;5012137;28;112314;-78
2022/08/28 07:34:00;;;;;;;10.53;8.10;;;22.60;96.60;;;23.16;60.74;98688.56;5012465;27;113982;-78
2022/08/28 07:36:28;;;;;;;10.73;7.80;;;22.60;96.60;;;23.19;60.89;98699.03;5007746;28;124013;-78
2022/08/28 07:38:56;;;;;;;10.30;8.10;;;22.70;96.60;;;23.22;60.73;98695.41;5025650;28;123856;-80
2022/08/28 07:41:28;;;;;;;12.23;8.47;;;22.70;96.60;;;23.25;60.69;98700.22;5017785;28;115283;-80
2022/08/28 07:46:40;;;;;;;10.73;7.63;;;22.70;96.80;;;23.22;60.63;98712.31;5011112;28;124691;-79
2022/08/28 07:49:08;;;;;;;10.00;7.23;;;22.70;96.50;;;23.24;60.67;98712.72;5008163;28;123697;-79
2022/08/28 07:51:35;;;;;;;9.20;7.30;;;22.70;96.50;;;23.26;60.61;98723.59;5008359;28;114914;-78
2022/08/28 07:54:03;;;;;;;11.67;7.90;;;22.70;96.50;;;23.27;60.93;98716.75;5017204;27;113817;-78
2022/08/28 07:56:30;;;;;;;13.67;9.07;;;22.80;96.50;;;23.28;60.62;98719.16;5017198;27;124569;-79
2022/08/28 07:58:59;;;;;;;8.40;5.80;;;22.70;96.40;;;23.27;60.78;98725.22;5019106;28;125217;-81
2022/08/28 08:01:28;;;;;;;12.73;8.83;;;22.80;96.40;;;23.32;60.66;98727.63;5011957;28;114318;-79
2022/08/28 08:03:54;;;;;;;13.30;8.80;;;22.80;96.40;;;23.32;60.41;98722.81;5013451;28;113903;-80
2022/08/28 08:06:21;;;;;;;12.23;7.50;;;22.80;96.30;;;23.32;60.50;98717.16;5009106;28;123992;-79
2022/08/28 08:08:49;;;;;;;9.27;7.13;;;22.80;96.30;;;23.37;60.32;98719.59;5013166;28;123931;-81
2022/08/28 08:11:17;;;;;;;11.43;7.67;;;22.90;96.30;;;23.44;60.18;98721.59;5009963;28;114295;-79
2022/08/28 08:13:46;;;;;;;14.27;8.83;;;22.90;96.30;;;23.49;59.95;98723.22;5017638;28;113710;-78
2022/08/28 08:16:21;;;;;;;10.30;8.37;;;22.90;96.20;;;23.46;59.95;98726.84;5007521;28;124017;-78
2022/08/28 08:18:49;;;;;;;7.70;6.17;;;22.90;96.10;;;23.48;59.99;98730.06;5015659;27;123799;-78
2022/08/28 08:21:19;;;;;;;8.50;7.60;;;22.90;96.10;;;23.48;59.93;98730.06;5011367;28;113946;-78
2022/08/28 08:23:46;;;;;;;13.03;8.43;;;23.00;96.10;;;23.50;59.75;98736.91;5010320;28;114513;-79
2022/08/28 08:26:17;;;;;;;11.97;8.70;;;23.00;96.00;;;23.48;59.77;98738.53;5010588;28;124544;-80
2022/08/28 08:28:45;;;;;;;10.50;7.80;;;23.00;96.00;;;23.48;59.94;98742.16;5021919;28;124276;-77
2022/08/28 08:31:23;;;;;;;15.17;8.80;;;23.00;96.00;;;23.52;59.78;98742.16;5012066;28;115580;-80
2022/08/28 08:33:56;;;;;;;10.00;7.00;;;23.00;96.00;;;23.54;59.84;98745.41;5012762;28;115215;-77
2022/08/28 08:36:25;;;;;;;9.80;7.20;;;23.00;95.90;;;23.57;59.74;98747.41;5024545;27;123357;-77
2022/08/28 08:38:53;;;;;;;12.10;8.60;;;23.10;96.00;;;23.62;59.79;98746.22;5007856;28;123827;-79
2022/08/28 08:41:32;;;;;;;15.37;8.40;;;23.10;95.90;;;23.65;59.80;98743.38;5012494;27;114299;-77
2022/08/28 08:44:22;;;;;;;8.33;6.50;;;23.10;95.90;;;23.69;59.84;98746.19;5016347;28;113917;-84
2022/08/28 08:47:16;;;;;;;7.53;6.80;;;23.20;95.90;;;23.72;59.54;98753.88;5023790;28;124841;-78
2022/08/28 08:50:02;;;;;;;8.40;7.33;;;23.20;95.80;;;23.75;59.61;98755.91;5020057;28;123767;-77
2022/08/28 08:53:02;;;;;;;11.30;8.63;;;23.30;95.80;;;23.75;59.39;98756.72;5009841;28;114255;-78
2022/08/28 08:55:49;;;;;;;13.13;8.50;;;23.30;95.70;;;23.80;59.15;98761.97;5020378;27;113998;-78
2022/08/28 08:58:39;;;;;;;9.90;7.00;;;23.30;95.70;;;23.86;59.20;98753.91;5013727;28;123707;-78
2022/08/28 09:02:06;;;;;;;11.73;8.07;;;23.40;95.60;;;23.94;59.24;98766.00;5027157;27;123891;-76
2022/08/28 09:05:00;;;;;;;11.57;9.13;;;23.40;95.60;;;23.99;58.71;98757.94;5020944;28;114108;-78
2022/08/28 09:07:39;;;;;;;7.50;6.30;;;23.50;95.40;;;24.05;58.35;98763.97;5039710;27;114179;-78
2022/08/28 09:10:11;;;;;;;7.33;6.40;;;23.50;95.60;;;24.15;58.57;98766.00;5020864;28;123990;-78
2022/08/28 09:13:05;;;;;;;9.77;6.53;;;23.60;95.30;;;24.24;58.20;98759.94;5016453;28;123848;-79
2022/08/28 09:15:38;;;;;;;8.63;6.73;;;23.70;95.20;;;24.33;58.27;98765.16;5024044;28;114523;-78
2022/08/28 09:18:22;;;;;;;10.83;7.40;;;23.70;95.10;;;24.35;57.50;98765.56;5027996;28;113555;-81
2022/08/28 09:20:55;;;;;;;11.63;6.03;;;23.80;94.80;;;24.39;57.40;98755.84;5027968;28;125491;-78
2022/08/28 09:23:24;;;;;;;12.10;7.30;;;23.80;94.80;;;24.45;57.46;98759.13;5028915;28;123856;-79
2022/08/28 09:25:55;;;;;;;11.23;7.63;;;23.90;94.80;;;24.51;56.99;98768.78;5030309;28;114821;-79
2022/08/28 09:28:33;;;;;;;12.97;7.53;;;23.90;94.60;;;24.56;56.94;98770.41;5028997;28;115632;-78
2022/08/28 09:31:16;;;;;;;11.47;7.97;;;24.00;94.40;;;24.50;56.56;98761.50;5026101;28;124055;-80
2022/08/28 09:33:46;;;;;;;7.80;6.63;;;24.00;94.20;;;24.49;56.55;98770.41;5020770;27;123646;-79
2022/08/28 09:36:25;;;;;;;12.87;7.90;;;24.00;94.10;;;24.52;56.76;98770.38;5017223;27;113370;-77
2022/08/28 09:39:22;;;;;;;10.40;6.47;;;24.10;94.10;;;24.58;56.59;98765.94;5016705;27;114114;-79
2022/08/28 09:45:17;;;;;;;7.97;6.40;;;24.20;93.90;;;24.73;56.33;98768.72;5022408;27;124656;-82
2022/08/28 09:47:54;;;;;;;9.70;7.20;;;24.20;93.90;;;24.79;55.74;98767.06;5020603;27;114759;-78
2022/08/28 09:50:43;;;;;;;9.20;6.40;;;24.30;93.70;;;24.87;55.75;98757.34;5015205;27;112546;-77
2022/08/28 09:53:10;;;;;;;9.63;6.60;;;24.30;94.00;;;24.97;55.40;98758.53;5017359;27;123400;-77
2022/08/28 09:56:07;;;;;;;8.90;7.23;;;24.40;93.60;;;25.04;55.01;98759.31;5024849;27;124236;-80
2022/08/28 09:58:45;;;;;;;9.43;6.33;;;24.50;93.40;;;25.09;54.70;98756.06;5024967;27;115561;-77
2022/08/28 10:01:42;;;;;;;9.80;6.50;;;24.50;93.10;;;25.11;54.90;98766.94;5025993;28;114549;-79
2022/08/28 10:04:55;;;;;;;11.70;7.43;;;24.50;93.00;;;25.14;54.78;98768.94;5026290;28;124096;-82
2022/08/28 10:07:56;;;;;;;8.73;6.37;;;24.60;92.90;;;25.18;54.30;98766.94;5019781;28;123117;-82
2022/08/28 10:10:45;;;;;;;8.83;6.23;;;24.60;92.80;;;25.24;54.32;98768.13;5034101;28;114340;-81
2022/08/28 10:13:17;;;;;;;10.03;7.10;;;24.70;92.80;;;25.28;54.26;98765.25;5025539;27;112851;-79
2022/08/28 10:16:13;;;;;;;12.20;7.33;;;24.70;92.60;;;25.30;54.59;98771.31;5019762;28;124463;-78
2022/08/28 10:19:02;;;;;;;9.60;6.63;;;24.80;92.60;;;25.30;54.31;98769.28;5017722;27;123760;-78
2022/08/28 10:22:08;;;;;;;12.27;5.87;;;24.80;92.50;;;25.31;53.93;98764.47;5025867;28;115517;-77
2022/08/28 10:25:01;;;;;;;11.33;7.40;;;24.80;92.30;;;25.29;53.91;98764.06;4998243;27;114805;-80
2022/08/28 10:27:34;;;;;;;8.27;5.53;;;24.80;92.00;;;25.34;53.77;98769.28;5022081;28;124576;-79
2022/08/28 10:30:06;;;;;;;11.33;6.77;;;24.90;92.20;;;25.37;52.64;98757.16;5015005;28;124271;-79
2022/08/28 10:32:58;;;;;;;10.30;6.63;;;24.90;91.70;;;25.36;52.86;98766.84;5028286;27;114333;-79
2022/08/28 10:35:43;;;;;;;7.80;5.93;;;24.90;91.60;;;25.41;52.60;98765.59;5027598;27;114501;-77